createdAt,value
2017-10-26T00:00:32.830Z,99060.65
2017-10-26T00:03:01.855Z,99064.80
2017-10-26T00:05:30.118Z,99066.80
2017-10-26T00:07:58.378Z,99067.66
2017-10-26T00:10:27.416Z,99063.48
2017-10-26T00:12:55.681Z,99071.36
2017-10-26T00:15:23.930Z,99064.14
2017-10-26T00:17:52.953Z,99065.19
2017-10-26T00:20:21.213Z,99066.29
2017-10-26T00:22:49.460Z,99074.54
2017-10-26T00:25:18.499Z,99072.75
2017-10-26T00:27:46.752Z,99062.72
2017-10-26T00:30:15.017Z,99075.23
2017-10-26T00:32:44.043Z,99084.60
2017-10-26T00:35:12.293Z,99078.12
2017-10-26T00:37:40.550Z,99094.64
2017-10-26T00:40:09.562Z,99097.47
2017-10-26T00:42:37.827Z,99102.80
2017-10-26T00:45:06.839Z,99110.70
2017-10-26T00:47:35.094Z,99110.90
2017-10-26T00:50:04.116Z,99113.17
2017-10-26T00:52:32.371Z,99111.74
2017-10-26T00:55:01.387Z,99109.18
2017-10-26T00:57:29.652Z,99104.48
2017-10-26T00:59:57.890Z,99108.33
2017-10-26T01:02:26.142Z,99116.10
2017-10-26T01:04:54.396Z,99104.34
2017-10-26T01:07:22.654Z,99112.02
2017-10-26T01:09:50.904Z,99103.09
2017-10-26T01:12:19.932Z,99102.16
2017-10-26T01:14:48.187Z,99093.04
2017-10-26T01:17:16.439Z,99097.88
2017-10-26T01:19:45.459Z,99090.45
2017-10-26T01:22:14.483Z,99096.20
2017-10-26T01:24:42.742Z,99090.59
2017-10-26T01:27:11.002Z,99098.58
2017-10-26T01:29:39.260Z,99108.19
2017-10-26T01:32:07.504Z,99104.70
2017-10-26T01:34:35.762Z,99108.03
2017-10-26T01:37:04.020Z,99101.98
2017-10-26T01:39:32.266Z,99097.81
2017-10-26T01:42:01.278Z,99100.50
2017-10-26T01:44:29.535Z,99097.91
2017-10-26T01:46:58.587Z,99097.73
2017-10-26T01:49:26.845Z,99101.01
2017-10-26T01:51:55.082Z,99095.80
2017-10-26T01:54:24.108Z,99089.64
2017-10-26T01:56:52.352Z,99097.48
2017-10-26T01:59:20.612Z,99095.94
2017-10-26T02:01:49.648Z,99088.97
2017-10-26T02:04:18.647Z,99086.81
2017-10-26T02:06:46.902Z,99088.58
2017-10-26T02:09:15.169Z,99088.83
2017-10-26T02:11:44.185Z,99088.50
2017-10-26T02:14:12.447Z,99091.98
2017-10-26T02:16:40.697Z,99092.83
2017-10-26T02:19:09.722Z,99091.56
2017-10-26T02:21:37.983Z,99094.41
2017-10-26T02:24:06.246Z,99102.05
2017-10-26T02:26:35.265Z,99092.17
2017-10-26T02:32:11.956Z,99097.39
2017-10-26T02:34:40.218Z,99097.65
2017-10-26T02:37:09.231Z,99099.17
2017-10-26T02:39:37.492Z,99094.47
2017-10-26T02:42:05.742Z,99095.91
2017-10-26T02:44:34.767Z,99102.48
2017-10-26T02:47:03.013Z,99103.86
2017-10-26T02:49:32.040Z,99098.52
2017-10-26T02:52:00.286Z,99100.04
2017-10-26T02:54:29.310Z,99085.98
2017-10-26T02:56:57.553Z,99088.03
2017-10-26T02:59:26.575Z,99095.29
2017-10-26T03:01:54.826Z,99096.45
2017-10-26T03:04:23.866Z,99096.58
2017-10-26T03:06:52.115Z,99094.14
2017-10-26T03:09:20.366Z,99096.19
2017-10-26T03:11:49.386Z,99103.92
2017-10-26T03:14:17.622Z,99101.94
2017-10-26T03:16:45.878Z,99096.67
2017-10-26T03:19:14.122Z,99093.36
2017-10-26T03:21:42.377Z,99092.99
2017-10-26T03:24:10.624Z,99087.03
2017-10-26T03:26:38.870Z,99090.16
2017-10-26T03:29:07.115Z,99083.20
2017-10-26T03:31:35.370Z,99087.41
2017-10-26T03:34:04.387Z,99082.49
2017-10-26T03:36:32.637Z,99079.27
2017-10-26T03:39:01.647Z,99078.59
2017-10-26T03:41:29.904Z,99075.77
2017-10-26T03:43:58.915Z,99071.03
2017-10-26T03:46:27.163Z,99081.84
2017-10-26T03:48:56.187Z,99076.64
2017-10-26T03:51:24.436Z,99087.20
2017-10-26T03:53:53.458Z,99084.50
2017-10-26T03:56:21.714Z,99093.86
2017-10-26T03:58:50.725Z,99097.03
2017-10-26T04:01:18.987Z,99088.79
2017-10-26T04:03:47.991Z,99094.81
2017-10-26T04:06:16.241Z,99091.02
2017-10-26T04:08:45.258Z,99089.74
2017-10-26T04:11:13.512Z,99086.83
2017-10-26T04:13:42.528Z,99084.70
2017-10-26T04:16:10.808Z,99077.41
2017-10-26T04:18:39.045Z,99083.25
2017-10-26T04:21:07.294Z,99084.17
2017-10-26T04:23:35.559Z,99084.52
2017-10-26T04:26:03.802Z,99085.81
2017-10-26T04:28:32.062Z,99087.06
2017-10-26T04:31:01.074Z,99086.82
2017-10-26T04:33:29.325Z,99083.84
2017-10-26T04:35:58.338Z,99082.03
2017-10-26T04:38:26.595Z,99075.36
2017-10-26T04:40:55.606Z,99071.92
2017-10-26T04:43:23.861Z,99074.04
2017-10-26T04:45:52.872Z,99078.32
2017-10-26T04:48:21.133Z,99077.25
2017-10-26T04:50:50.145Z,99073.42
2017-10-26T04:53:18.399Z,99069.82
2017-10-26T04:55:47.415Z,99069.37
2017-10-26T04:58:15.674Z,99063.92
2017-10-26T05:00:44.690Z,99063.56
2017-10-26T05:03:12.941Z,99072.93
2017-10-26T05:05:41.958Z,99067.77
2017-10-26T05:08:10.215Z,99065.95
2017-10-26T05:10:39.222Z,99078.25
2017-10-26T05:13:07.479Z,99075.25
2017-10-26T05:15:36.487Z,99077.41
2017-10-26T05:18:04.756Z,99074.02
2017-10-26T05:20:33.761Z,99072.09
2017-10-26T05:23:02.026Z,99063.70
2017-10-26T05:25:30.271Z,99066.66
2017-10-26T05:27:58.547Z,99065.66
2017-10-26T05:30:26.785Z,99062.69
2017-10-26T05:32:55.027Z,99068.61
2017-10-26T05:35:23.282Z,99064.04
2017-10-26T05:37:52.298Z,99064.66
2017-10-26T05:40:20.564Z,99066.02
2017-10-26T05:42:49.574Z,99072.02
2017-10-26T05:45:17.835Z,99067.00
2017-10-26T05:47:46.084Z,99070.15
2017-10-26T05:50:14.339Z,99064.48
2017-10-26T05:52:42.585Z,99060.69
2017-10-26T05:55:10.830Z,99061.53
2017-10-26T05:57:39.834Z,99058.07
2017-10-26T06:00:08.090Z,99063.02
2017-10-26T06:02:36.326Z,99061.30
2017-10-26T06:05:05.339Z,99060.30
2017-10-26T06:07:33.582Z,99059.05
2017-10-26T06:10:01.831Z,99057.48
2017-10-26T06:12:30.083Z,99061.16
2017-10-26T06:14:59.110Z,99057.84
2017-10-26T06:17:27.354Z,99057.33
2017-10-26T06:19:56.375Z,99057.51
2017-10-26T06:22:24.615Z,99063.94
2017-10-26T06:24:52.867Z,99065.34
2017-10-26T06:27:21.111Z,99070.56
2017-10-26T06:29:49.376Z,99069.16
2017-10-26T06:32:17.618Z,99069.16
2017-10-26T06:34:46.634Z,99062.70
2017-10-26T06:37:14.885Z,99061.51
2017-10-26T06:39:43.142Z,99061.13
2017-10-26T06:42:11.395Z,99072.31
2017-10-26T06:44:39.635Z,99074.75
2017-10-26T06:47:07.886Z,99069.91
2017-10-26T06:49:36.903Z,99072.26
2017-10-26T06:52:05.151Z,99072.82
2017-10-26T06:54:33.398Z,99073.47
2017-10-26T06:57:01.654Z,99072.73
2017-10-26T06:59:29.898Z,99064.66
2017-10-26T07:01:58.913Z,99059.77
2017-10-26T07:04:27.157Z,99061.06
2017-10-26T07:06:56.183Z,99062.80
2017-10-26T07:09:24.433Z,99065.96
2017-10-26T07:11:53.455Z,99069.33
2017-10-26T07:14:21.701Z,99071.80
2017-10-26T07:16:50.728Z,99072.73
2017-10-26T07:19:18.969Z,99071.77
2017-10-26T07:21:47.994Z,99069.54
2017-10-26T07:24:16.232Z,99069.00
2017-10-26T07:26:45.263Z,99066.14
2017-10-26T07:29:13.505Z,99069.71
2017-10-26T07:31:42.564Z,99074.13
2017-10-26T07:34:10.792Z,99078.58
2017-10-26T07:36:39.055Z,99069.02
2017-10-26T07:39:08.066Z,99066.88
2017-10-26T07:41:36.317Z,99072.51
2017-10-26T07:44:05.330Z,99065.56
2017-10-26T07:46:33.590Z,99062.13
2017-10-26T07:49:01.831Z,99061.09
2017-10-26T07:51:30.070Z,99065.02
2017-10-26T07:53:58.333Z,99071.25
2017-10-26T07:56:26.569Z,99065.53
2017-10-26T07:58:55.590Z,99060.93
2017-10-26T08:01:23.838Z,99059.63
2017-10-26T08:03:52.087Z,99059.72
2017-10-26T08:06:20.325Z,99059.73
2017-10-26T08:08:48.587Z,99063.86
2017-10-26T08:11:16.828Z,99065.36
2017-10-26T08:13:45.090Z,99066.05
2017-10-26T08:16:13.337Z,99066.33
2017-10-26T08:18:41.586Z,99054.00
2017-10-26T08:21:10.603Z,99055.34
2017-10-26T08:23:38.841Z,99054.13
2017-10-26T08:26:07.854Z,99049.53
2017-10-26T08:28:36.111Z,99049.86
2017-10-26T08:31:05.132Z,99045.56
2017-10-26T08:33:33.396Z,99040.83
2017-10-26T08:36:01.640Z,99041.28
2017-10-26T08:38:29.897Z,99039.84
2017-10-26T08:40:58.150Z,99054.50
2017-10-26T08:43:26.506Z,99041.37
2017-10-26T08:45:54.762Z,99042.52
2017-10-26T08:48:23.783Z,99035.69
2017-10-26T08:50:52.040Z,99040.58
2017-10-26T08:53:21.146Z,99036.41
2017-10-26T08:55:49.404Z,99041.59
2017-10-26T08:58:18.429Z,99041.09
2017-10-26T09:00:46.686Z,99044.41
2017-10-26T09:03:14.937Z,99036.48
2017-10-26T09:05:43.970Z,99035.70
2017-10-26T09:08:12.228Z,99035.77
2017-10-26T09:10:40.496Z,99047.70
2017-10-26T09:13:08.750Z,99057.30
2017-10-26T09:15:37.010Z,99064.04
2017-10-26T09:18:05.263Z,99066.66
2017-10-26T09:20:34.294Z,99072.05
2017-10-26T09:23:02.553Z,99069.27
2017-10-26T09:25:30.826Z,99079.64
2017-10-26T09:27:59.091Z,99081.94
2017-10-26T09:30:28.123Z,99076.26
2017-10-26T09:33:02.010Z,99078.84
2017-10-26T09:35:30.283Z,99073.44
2017-10-26T09:37:58.535Z,99068.98
2017-10-26T09:40:27.571Z,99061.54
2017-10-26T09:42:55.815Z,99061.39
2017-10-26T09:45:24.075Z,99054.89
2017-10-26T09:47:53.093Z,99047.77
2017-10-26T09:50:21.362Z,99046.01
2017-10-26T09:52:49.610Z,99052.12
2017-10-26T09:55:17.867Z,99060.23
2017-10-26T09:57:46.126Z,99053.83
2017-10-26T10:00:14.384Z,99049.16
2017-10-26T10:02:42.638Z,99045.23
2017-10-26T10:05:10.893Z,99045.04
2017-10-26T10:07:39.906Z,99047.77
2017-10-26T10:10:08.166Z,99050.98
2017-10-26T10:12:37.181Z,99050.37
2017-10-26T10:15:05.449Z,99063.18
2017-10-26T10:17:33.702Z,99062.36
2017-10-26T10:20:02.732Z,99059.91
2017-10-26T10:22:30.983Z,99062.23
2017-10-26T10:24:59.998Z,99058.82
2017-10-26T10:27:28.257Z,99046.86
2017-10-26T10:29:57.263Z,99043.37
2017-10-26T10:32:25.522Z,99040.79
2017-10-26T10:34:54.537Z,99043.89
2017-10-26T10:37:22.797Z,99036.11
2017-10-26T10:39:51.813Z,99035.78
2017-10-26T10:42:20.071Z,99026.33
2017-10-26T10:44:48.321Z,99025.94
2017-10-26T10:47:16.585Z,99023.58
2017-10-26T10:49:44.834Z,99017.77
2017-10-26T10:52:13.089Z,99028.14
2017-10-26T10:54:41.339Z,99028.81
2017-10-26T10:57:10.367Z,99016.08
2017-10-26T10:59:44.217Z,99019.44
2017-10-26T11:02:12.479Z,99022.55
2017-10-26T11:04:40.722Z,99014.19
2017-10-26T11:07:08.992Z,99009.31
2017-10-26T11:09:37.234Z,99001.53
2017-10-26T11:12:06.256Z,99000.38
2017-10-26T11:14:34.503Z,99002.20
2017-10-26T11:17:03.527Z,98996.28
2017-10-26T11:19:31.787Z,98993.58
2017-10-26T11:22:00.038Z,98993.27
2017-10-26T11:24:29.058Z,98988.36
2017-10-26T11:26:57.321Z,98989.80
2017-10-26T11:29:26.338Z,98986.97
2017-10-26T11:31:54.607Z,98993.83
2017-10-26T11:34:22.859Z,98985.59
2017-10-26T11:36:51.936Z,98991.00
2017-10-26T11:39:20.188Z,98987.06
2017-10-26T11:41:48.447Z,98987.89
2017-10-26T11:44:16.706Z,98979.53
2017-10-26T11:46:44.965Z,98982.00
2017-10-26T11:49:13.985Z,98985.17
2017-10-26T11:51:42.239Z,98984.17
2017-10-26T11:54:10.494Z,98977.77
2017-10-26T11:56:39.514Z,98979.03
2017-10-26T11:59:07.765Z,98972.10
2017-10-26T12:01:36.782Z,98963.47
2017-10-26T12:04:05.042Z,98952.92
2017-10-26T12:06:34.052Z,98942.06
2017-10-26T12:09:02.302Z,98933.70
2017-10-26T12:11:31.324Z,98929.24
2017-10-26T12:13:59.574Z,98937.31
2017-10-26T12:16:28.588Z,98932.22
2017-10-26T12:18:56.847Z,98940.70
2017-10-26T12:21:25.873Z,98935.45
2017-10-26T12:23:54.126Z,98938.19
2017-10-26T12:26:23.128Z,98936.09
2017-10-26T12:28:51.378Z,98919.96
2017-10-26T12:31:20.386Z,98908.20
2017-10-26T12:33:48.643Z,98902.13
2017-10-26T12:36:17.649Z,98916.39
2017-10-26T12:38:46.666Z,98909.79
2017-10-26T12:41:14.908Z,98910.23
2017-10-26T12:43:43.949Z,98908.83
2017-10-26T12:46:12.193Z,98911.19
2017-10-26T12:48:40.441Z,98902.52
2017-10-26T12:51:08.714Z,98893.02
2017-10-26T12:53:36.937Z,98899.38
2017-10-26T12:56:05.190Z,98897.61
2017-10-26T12:58:34.208Z,98898.99
2017-10-26T13:01:02.455Z,98895.72
2017-10-26T13:03:31.462Z,98886.78
2017-10-26T13:05:59.721Z,98896.77
2017-10-26T13:08:28.719Z,98884.64
2017-10-26T13:10:57.731Z,98890.64
2017-10-26T13:13:25.976Z,98890.47
2017-10-26T13:15:54.990Z,98894.72
2017-10-26T13:18:23.233Z,98892.35
2017-10-26T13:20:51.478Z,98890.19
2017-10-26T13:23:19.724Z,98900.98
2017-10-26T13:25:47.979Z,98897.13
2017-10-26T13:28:16.990Z,98892.47
2017-10-26T13:30:45.243Z,98893.23
2017-10-26T13:33:14.245Z,98897.05
2017-10-26T13:35:42.494Z,98879.80
2017-10-26T13:38:10.737Z,98883.70
2017-10-26T13:40:38.992Z,98878.13
2017-10-26T13:43:07.234Z,98887.63
2017-10-26T13:45:36.246Z,98885.02
2017-10-26T13:48:04.481Z,98896.66
2017-10-26T13:50:32.741Z,98901.52
2017-10-26T13:53:00.983Z,98897.23
2017-10-26T13:55:29.255Z,98895.56
2017-10-26T13:57:57.508Z,98899.02
2017-10-26T14:00:26.515Z,98899.05
2017-10-26T14:02:54.776Z,98898.59
2017-10-26T14:05:23.792Z,98897.70
2017-10-26T14:07:52.045Z,98901.14
2017-10-26T14:10:21.058Z,98896.55
2017-10-26T14:12:49.319Z,98903.73
2017-10-26T14:15:17.562Z,98899.36
2017-10-26T14:17:45.814Z,98901.61
2017-10-26T14:20:14.059Z,98913.27
2017-10-26T14:22:42.485Z,98920.62
2017-10-26T14:25:10.733Z,98915.09
2017-10-26T14:27:38.979Z,98906.89
2017-10-26T14:30:07.231Z,98908.66
2017-10-26T14:32:36.233Z,98909.98
2017-10-26T14:35:05.251Z,98913.41
2017-10-26T14:37:33.491Z,98912.13
2017-10-26T14:40:02.508Z,98910.09
2017-10-26T14:42:30.751Z,98910.03
2017-10-26T14:44:58.998Z,98903.16
2017-10-26T14:47:27.241Z,98902.27
2017-10-26T14:49:55.491Z,98902.27
2017-10-26T14:52:24.494Z,98901.83
2017-10-26T14:54:53.513Z,98893.58
2017-10-26T14:57:21.766Z,98896.09
2017-10-26T14:59:50.019Z,98886.34
2017-10-26T15:02:18.405Z,98879.87
2017-10-26T15:04:47.434Z,98881.20
2017-10-26T15:07:15.675Z,98882.08
2017-10-26T15:09:44.682Z,98885.59
2017-10-26T15:12:12.921Z,98884.32
2017-10-26T15:14:41.174Z,98888.19
2017-10-26T15:17:09.417Z,98885.64
2017-10-26T15:19:37.662Z,98882.67
2017-10-26T15:22:06.675Z,98880.16
2017-10-26T15:24:34.922Z,98870.72
2017-10-26T15:27:03.166Z,98879.63
2017-10-26T15:29:31.418Z,98877.49
2017-10-26T15:31:59.669Z,98873.25
2017-10-26T15:34:28.677Z,98869.83
2017-10-26T15:36:56.926Z,98866.86
2017-10-26T15:39:25.175Z,98858.30
2017-10-26T15:41:53.419Z,98864.77
2017-10-26T15:44:21.668Z,98871.20
2017-10-26T15:46:49.914Z,98874.20
2017-10-26T15:49:18.166Z,98867.80
2017-10-26T15:51:46.414Z,98869.52
2017-10-26T15:54:14.666Z,98869.52
2017-10-26T15:56:42.917Z,98872.94
2017-10-26T15:59:11.172Z,98866.95
2017-10-26T16:01:39.416Z,98878.08
2017-10-26T16:04:07.674Z,98871.20
2017-10-26T16:06:36.681Z,98870.75
2017-10-26T16:09:04.937Z,98868.61
2017-10-26T16:11:33.941Z,98872.05
2017-10-26T16:14:02.191Z,98876.30
2017-10-26T16:16:31.202Z,98877.14
2017-10-26T16:18:59.449Z,98866.89
2017-10-26T16:21:28.465Z,98868.58
2017-10-26T16:23:56.955Z,98870.72
2017-10-26T16:26:25.186Z,98860.02
2017-10-26T16:28:53.437Z,98861.33
2017-10-26T16:31:21.687Z,98859.61
2017-10-26T16:33:49.935Z,98859.61
2017-10-26T16:36:18.942Z,98858.34
2017-10-26T16:38:47.190Z,98852.77
2017-10-26T16:41:15.442Z,98859.20
2017-10-26T16:43:43.697Z,98857.88
2017-10-26T16:46:11.937Z,98857.44
2017-10-26T16:48:40.197Z,98848.45
2017-10-26T16:51:09.206Z,98860.00
2017-10-26T16:53:37.457Z,98858.27
2017-10-26T16:56:05.706Z,98853.98
2017-10-26T16:58:34.734Z,98857.42
2017-10-26T17:01:03.747Z,98859.97
2017-10-26T17:03:32.779Z,98868.08
2017-10-26T17:06:01.017Z,98873.22
2017-10-26T17:08:29.296Z,98868.09
2017-10-26T17:10:57.534Z,98852.23
2017-10-26T17:13:25.775Z,98852.25
2017-10-26T17:15:54.034Z,98852.66
2017-10-26T17:18:22.286Z,98862.05
2017-10-26T17:20:51.308Z,98865.05
2017-10-26T17:23:19.546Z,98852.63
2017-10-26T17:25:48.572Z,98863.30
2017-10-26T17:28:16.819Z,98872.70
2017-10-26T17:30:45.835Z,98874.37
2017-10-26T17:33:14.083Z,98871.80
2017-10-26T17:35:43.102Z,98862.80
2017-10-26T17:38:11.356Z,98856.80
2017-10-26T17:40:40.370Z,98849.10
2017-10-26T17:43:08.622Z,98854.66
2017-10-26T17:45:37.636Z,98858.02
2017-10-26T17:48:05.881Z,98856.33
2017-10-26T17:50:34.901Z,98856.70
2017-10-26T17:53:03.145Z,98849.05
2017-10-26T17:55:31.399Z,98841.34
2017-10-26T17:57:59.647Z,98842.98
2017-10-26T18:00:27.894Z,98844.69
2017-10-26T18:02:56.906Z,98850.64
2017-10-26T18:05:25.161Z,98837.83
2017-10-26T18:07:54.173Z,98838.25
2017-10-26T18:10:22.434Z,98833.07
2017-10-26T18:12:50.681Z,98829.26
2017-10-26T18:15:18.947Z,98831.75
2017-10-26T18:17:47.204Z,98832.63
2017-10-26T18:20:15.447Z,98829.23
2017-10-26T18:22:43.694Z,98832.17
2017-10-26T18:25:12.713Z,98829.63
2017-10-26T18:27:40.954Z,98836.90
2017-10-26T18:30:09.214Z,98831.75
2017-10-26T18:32:37.468Z,98835.62
2017-10-26T18:35:05.733Z,98845.42
2017-10-26T18:37:33.978Z,98849.67
2017-10-26T18:40:02.239Z,98839.01
2017-10-26T18:42:30.483Z,98835.16
2017-10-26T18:44:58.742Z,98838.16
2017-10-26T18:47:26.995Z,98848.41
2017-10-26T18:49:55.249Z,98846.70
2017-10-26T18:52:24.276Z,98847.08
2017-10-26T18:54:52.521Z,98832.12
2017-10-26T18:57:21.553Z,98823.55
2017-10-26T18:59:49.804Z,98822.66
2017-10-26T19:02:18.054Z,98819.20
2017-10-26T19:04:47.093Z,98814.83
2017-10-26T19:07:15.331Z,98820.81
2017-10-26T19:09:44.347Z,98814.80
2017-10-26T19:12:12.604Z,98808.33
2017-10-26T19:14:41.620Z,98800.19
2017-10-26T19:17:09.864Z,98800.61
2017-10-26T19:19:38.876Z,98802.72
2017-10-26T19:22:07.126Z,98797.63
2017-10-26T19:24:36.142Z,98798.97
2017-10-26T19:27:04.395Z,98799.86
2017-10-26T19:29:33.406Z,98803.67
2017-10-26T19:32:01.653Z,98798.52
2017-10-26T19:34:29.913Z,98790.46
2017-10-26T19:36:58.174Z,98792.11
2017-10-26T19:39:26.428Z,98792.14
2017-10-26T19:41:54.674Z,98790.38
2017-10-26T19:44:25.431Z,98787.02
2017-10-26T19:46:53.689Z,98779.73
2017-10-26T19:49:22.709Z,98786.98
2017-10-26T19:51:50.963Z,98791.65
2017-10-26T19:54:19.226Z,98797.69
2017-10-26T19:56:48.261Z,98792.11
2017-10-26T19:59:16.506Z,98798.94
2017-10-26T20:01:44.766Z,98807.91
2017-10-26T20:04:13.788Z,98807.14
2017-10-26T20:06:42.046Z,98799.80
2017-10-26T20:09:11.063Z,98799.86
2017-10-26T20:11:39.321Z,98803.67
2017-10-26T20:14:07.570Z,98803.27
2017-10-26T20:16:35.826Z,98808.40
2017-10-26T20:19:04.084Z,98807.52
2017-10-26T20:21:32.343Z,98805.77
2017-10-26T20:24:00.621Z,98801.47
2017-10-26T20:26:28.903Z,98804.88
2017-10-26T20:28:57.191Z,98807.45
2017-10-26T20:31:25.477Z,98806.59
2017-10-26T20:33:53.727Z,98814.17
2017-10-26T20:36:36.858Z,98812.04
2017-10-26T20:39:05.122Z,98806.03
2017-10-26T20:41:33.411Z,98804.75
2017-10-26T20:44:01.683Z,98802.22
2017-10-26T20:46:30.002Z,98806.06
2017-10-26T20:48:58.304Z,98806.09
2017-10-26T20:51:32.655Z,98809.58
2017-10-26T20:54:06.183Z,98801.86
2017-10-26T20:56:40.245Z,98801.47
2017-10-26T20:59:14.010Z,98805.28
2017-10-26T21:01:47.791Z,98800.58
2017-10-26T21:04:21.498Z,98802.25
2017-10-26T21:06:49.760Z,98811.65
2017-10-26T21:09:23.626Z,98809.05
2017-10-26T21:11:57.391Z,98804.81
2017-10-26T21:14:28.486Z,98804.33
2017-10-26T21:16:56.754Z,98804.78
2017-10-26T21:19:25.766Z,98792.37
2017-10-26T21:21:54.047Z,98794.97
2017-10-26T21:24:22.303Z,98783.80
2017-10-26T21:26:50.559Z,98782.98
2017-10-26T21:29:19.585Z,98770.53
2017-10-26T21:31:47.837Z,98756.38
2017-10-26T21:34:16.099Z,98744.40
2017-10-26T21:36:45.122Z,98754.14
2017-10-26T21:39:13.366Z,98748.98
2017-10-26T21:41:42.390Z,98745.61
2017-10-26T21:44:10.648Z,98749.05
2017-10-26T21:46:38.905Z,98758.83
2017-10-26T21:49:07.921Z,98743.83
2017-10-26T21:51:36.190Z,98736.29
2017-10-26T21:54:05.202Z,98736.69
2017-10-26T21:59:01.008Z,98734.23
2017-10-26T22:01:30.030Z,98735.54
2017-10-26T22:03:58.306Z,98734.23
2017-10-26T22:06:26.558Z,98730.84
2017-10-26T22:08:55.580Z,98724.84
2017-10-26T22:11:23.838Z,98717.62
2017-10-26T22:13:52.091Z,98713.71
2017-10-26T22:16:21.118Z,98710.30
2017-10-26T22:18:49.370Z,98710.30
2017-10-26T22:21:18.388Z,98714.11
2017-10-26T22:23:46.662Z,98704.33
2017-10-26T22:26:14.927Z,98689.36
2017-10-26T22:28:43.180Z,98689.78
2017-10-26T22:31:12.197Z,98690.24
2017-10-26T22:33:40.450Z,98692.70
2017-10-26T22:36:09.479Z,98688.83
2017-10-26T22:38:37.733Z,98682.69
2017-10-26T22:41:06.712Z,98682.72
2017-10-26T22:43:35.722Z,98690.30
2017-10-26T22:46:03.982Z,98685.67
2017-10-26T22:48:33.010Z,98694.59
2017-10-26T22:51:01.274Z,98699.78
2017-10-26T22:53:29.525Z,98686.53
2017-10-26T22:55:58.547Z,98684.33
2017-10-26T22:58:26.804Z,98680.48
2017-10-26T23:00:55.823Z,98677.47
2017-10-26T23:03:24.088Z,98678.31
2017-10-26T23:05:52.339Z,98681.72
2017-10-26T23:08:21.355Z,98673.63
2017-10-26T23:10:49.615Z,98670.59
2017-10-26T23:13:18.643Z,98666.30
2017-10-26T23:15:46.904Z,98648.43
2017-10-26T23:18:15.158Z,98638.44
2017-10-26T23:20:44.187Z,98639.25
2017-10-26T23:23:12.431Z,98634.09
2017-10-26T23:25:41.450Z,98637.92
2017-10-26T23:28:09.707Z,98636.61
2017-10-26T23:30:38.722Z,98637.03
2017-10-26T23:33:06.992Z,98620.38
2017-10-26T23:35:35.247Z,98626.34
2017-10-26T23:38:04.266Z,98617.47
2017-10-26T23:40:32.517Z,98599.11
2017-10-26T23:43:00.779Z,98607.17
2017-10-26T23:45:29.807Z,98608.88
2017-10-26T23:47:58.063Z,98607.17
2017-10-26T23:50:26.317Z,98611.08
2017-10-26T23:52:54.574Z,98623.02
2017-10-26T23:55:22.828Z,98618.44
2017-10-26T23:57:51.096Z,98607.39
